• Join FlightAware (Why Join?)
  • Login
  • US Flag 
03:37AM EDT


 

Airport Tracker/Info


-or-


 

Live Flight TrackerFlight Track Log ✈ DAL1709 ✈ 17-Nov-2013 ✈ KATL - KBNA

Flight Track Log - Related Links

Times and Time Zones

All times are in EST time to prevent confusion due to time zone crossing. See the DAL1709 flight status page for this flight to view local times or setup timezone preferences in your user account.

Time Position Orientation Groundspeed Altitude Reporting Facility
EST Latitude Longitude Course Direction KTS MPH feet Rate Location/Type
11:29PM 33.6517 -84.4806 259° West 461 531 2,700  Level Atlanta Center
11:30PM 33.6575 -84.5553 275° West 338 389 5,300 2,880 Climbing Atlanta Center
11:31PM 33.6697 -84.6353 280° West 253 291 8,500 2,400 Climbing Atlanta Center
11:32PM 33.8001 -84.7607 270° West  Level FlightAware Approximate
11:32PM 33.6817 -84.7128 281° West 265 305 10,100  Level Atlanta Center
11:33PM 33.8000 -84.8895 270° West  Level FlightAware Approximate
11:33PM 33.7000 -84.8178 282° West 302 348 11,600  Level Atlanta Center
11:34PM 33.7817 -85.0163 259° West  Level FlightAware Approximate
11:34PM 33.7181 -84.9353 280° West 350 403 14,000  Level Atlanta Center
11:35PM 33.7589 -85.0508 293° West 371 427 16,200 2,100 Climbing Atlanta Center
11:36PM 33.8161 -85.1789 298° West 384 442 18,300 2,100 Climbing Atlanta Center
11:37PM 33.8692 -85.2972 298° West 395 455 20,400 1,980 Climbing Atlanta Center
11:38PM 33.9264 -85.4183 300° West 400 460 22,300 1,740 Climbing Atlanta Center
11:39PM 33.9833 -85.5419 299° West 410 472 23,900 1,620 Climbing Atlanta Center
11:40PM 34.0381 -85.6633 299° West 416 479 25,600 1,980 Climbing Atlanta Center
11:41PM 34.0992 -85.7797 302° West 409 471 27,900 1,200 Climbing Atlanta Center
11:42PM 34.2047 -85.8422 334° Northwest 394 453 28,000  Climbing Atlanta Center
11:43PM 34.3231 -85.8925 341° North 410 472 28,000  Level Atlanta Center
11:44PM 34.4453 -85.9456 340° North 440 506 28,000  Level Atlanta Center
11:45PM 34.5633 -85.9961 341° North 446 513 28,000  Level Atlanta Center
11:46PM 34.6794 -86.0444 341° North 446 513 28,000  Level Atlanta Center
11:47PM 34.7956 -86.0925 341° North 446 513 28,000 -1,560 Level Atlanta Center
11:50PM 35.0564 -86.2083 340° North 442 509 22,900 -2,280 Descending Memphis Center
11:51PM 35.1639 -86.2564 340° North 433 498 20,500 -2,760 Descending Memphis Center
11:52PM 35.2725 -86.3033 341° North 415 478 17,400 -2,880 Descending Memphis Center
11:53PM 35.3797 -86.3486 341° North 408 470 14,800 -2,400 Descending Memphis Center
11:54PM 35.4836 -86.3956 340° North 399 459 12,600 -1,860 Descending Memphis Center
11:55PM 35.5839 -86.4400 340° North 385 443 11,100 -840 Descending Memphis Center
11:56PM 35.6828 -86.4789 342° North 373 429 11,000 -420 Descending Memphis Center
11:57PM 35.7736 -86.4808 359° North 329 379 10,300 -1,200 Descending Memphis Center
11:58PM 35.8567 -86.4828 359° North 306 352 8,700 -1,620 Descending Memphis Center
11:59PM 35.9339 -86.4844 359° North 285 328 7,100 -1,740 Descending Memphis Center
12:00AM 35.9906 -86.4983 349° North 219 252 5,200 -2,040 Descending Memphis Center
12:01AM 36.0292 -86.5497 313° West 203 234 3,100 -1,500 Descending Memphis Center
12:02AM 36.0644 -86.5967 313° West 188 216 2,200 -840 Descending Memphis Center
12:03AM 36.0897 -86.6283 315° West 137 158 1,500 -720 Descending Memphis Center
12:04AM 36.1136 -86.6606 313° West 128 147 800 -540 Descending Memphis Center
12:05AM 36.1425 -86.6972 314° West 129 148 500 -300 Descending Memphis Center